Latest Coastal Weather Observations for Cape Moreton

IDQ60701

Issued at 2:42 pm EST Thursday 30 May 2024 (issued every 10 minutes, with the page automatically refreshed every 10 minutes)

About coastal observations | Map of coastal stations | Coastal observations for QLD | Marine services | Other Formats
Station Details ID: 040043 Name: CAPE MORETON LIGHTHOUSE Lat: -27.03 Lon: 153.47 Height: 99.9 m
Data from the previous 72 hours. | See also: Recent months at Cape Moreton
Date/Time
EST
Wind Sea
Height
m
Swell Vis
km
Cloud Weather Temp
°C
Press
MSL
hPa
Rain since
9am
mm
Dir  Spd
kts
Gust
kts
Height
m
Period
s
Dir
30/02:30pm SE 10 13 - - - - - - - 20.5 1024.3 0.0
30/02:00pm ESE 10 11 - - - - - - - 21.2 1024.4 0.0
30/01:30pm SE 15 21 - - - - - - - 20.5 1024.8 0.0
30/01:00pm SE 12 16 - - - - - - - 21.0 1024.9 0.0
30/12:30pm ESE 14 17 - - - - - - - 21.7 1025.4 0.0
30/12:00pm ESE 13 16 - - - - - - - 20.8 1026.0 0.0
30/11:30am ESE 15 18 - - - - - - - 21.0 1026.5 0.0
30/11:00am ESE 14 19 - - - - - - - 21.4 1026.7 0.0
30/10:30am ESE 14 17 - - - - - - - 21.9 1027.0 0.0
30/10:00am ESE 13 17 - - - - - - - 21.9 1027.4 0.0
30/09:30am ESE 17 21 - - - - - - - 21.4 1027.6 0.0
30/09:00am ESE 15 18 - - - - - - - 20.8 1027.6 2.2
30/08:30am ESE 15 19 - - - - - - - 18.8 1027.6 2.2
30/08:00am ESE 19 29 - - - - - - - 19.6 1027.2 2.2
30/07:57am ESE 17 28 - - - - - - - 20.5 1027.0 2.0
30/07:30am ESE 16 21 - - - - - - - 20.7 1026.8 2.0
30/07:00am ESE 16 19 - - - - - - - 20.3 1026.6 2.0
30/06:30am ESE 16 22 - - - - - - - 20.1 1026.5 2.0
30/06:00am ESE 18 26 - - - - - - - 20.1 1026.0 2.0
30/05:30am ESE 17 22 - - - - - - - 20.1 1025.5 2.0
30/05:00am ESE 18 23 - - - - - - - 20.3 1025.4 2.0
30/04:30am ESE 17 24 - - - - - - - 20.2 1025.2 2.0
30/04:00am ESE 20 24 - - - - - - - 20.4 1025.1 2.0
30/03:30am ESE 20 26 - - - - - - - 20.3 1025.0 2.0
30/03:00am ESE 20 27 - - - - - - - 20.4 1025.0 2.0
30/02:30am ESE 19 25 - - - - - - - 20.3 1024.8 2.0
30/02:00am ESE 15 19 - - - - - - - 19.6 1025.4 2.0
30/01:30am ESE 17 21 - - - - - - - 19.4 1025.6 2.0
30/01:00am ESE 16 19 - - - - - - - 19.3 1025.9 2.0
30/12:30am ESE 14 16 - - - - - - - 18.8 1026.4 2.0
30/12:00am SE 14 19 - - - - - - - 18.0 1026.5 2.0
 
Date/Time
EST
Wind Sea
Height
m
Swell Vis
km
Cloud Weather Temp
°C
Press
MSL
hPa
Rain since
9am
mm
Dir  Spd
kts
Gust
kts
Height
m
Period
s
Dir
29/11:30pm ESE 18 23 - - - - - - - 18.2 1026.8 2.0
29/11:00pm E 16 23 - - - - - - - 17.6 1027.1 2.0
29/10:30pm E 23 31 - - - - - - - 18.1 1027.0 0.4
29/10:11pm E 22 32 - - - - - - - 19.9 1026.6 0.0
29/10:00pm ESE 19 25 - - - - - - - 20.4 1026.9 0.0
29/09:30pm ESE 17 23 - - - - - - - 21.0 1026.8 0.0
29/09:00pm ESE 15 19 - - - - - - - 20.6 1026.8 0.0
29/08:30pm ESE 16 21 - - - - - - - 20.2 1026.9 0.0
29/08:00pm E 16 23 - - - - - - - 20.1 1027.0 0.0
29/07:30pm ESE 18 22 - - - - - - - 21.1 1026.8 0.0
29/07:00pm ESE 17 20 - - - - - - - 20.7 1026.6 0.0
29/06:30pm ESE 17 21 - - - - - - - 20.8 1026.5 0.0
29/06:00pm ESE 15 21 - - - - - - - 20.7 1026.2 0.0
29/05:30pm ESE 17 20 - - - - - - - 20.8 1026.0 0.0
29/05:00pm ESE 18 23 - - - - - - - 20.9 1025.9 0.0
29/04:30pm ESE 17 21 - - - - - - - 21.6 1025.8 0.0
29/04:00pm ESE 16 21 - - - - - - - 21.6 1025.3 0.0
29/03:30pm ESE 15 19 - - - - - - - 21.9 1025.3 0.0
29/03:00pm ESE 15 20 - - - - - - - 22.3 1025.3 0.0
29/02:30pm ESE 16 20 - - - - - - - 22.1 1025.3 0.0
29/02:00pm ESE 16 20 - - - - - - - 22.6 1025.2 0.0
29/01:30pm ESE 18 22 - - - - - - - 22.6 1025.3 0.0
29/01:00pm ESE 17 21 - - - - - - - 22.7 1025.4 0.0
29/12:30pm ESE 17 22 - - - - - - - 23.1 1025.6 0.0
29/12:00pm ESE 17 21 - - - - - - - 23.2 1026.1 0.0
29/11:30am ESE 16 20 - - - - - - - 23.0 1026.5 0.0
29/11:00am ESE 18 21 - - - - - - - 22.8 1026.8 0.0
29/10:30am ESE 18 22 - - - - - - - 22.1 1027.0 0.0
29/10:00am SE 15 20 - - - - - - - 21.7 1027.4 0.0
29/09:30am SE 16 20 - - - - - - - 22.6 1027.4 0.0
29/09:00am SE 18 23 - - - - - - - 22.3 1027.2 1.4
29/08:30am SE 18 23 - - - - - - - 21.0 1027.0 1.4
29/08:00am ESE 18 21 - - - - - - - 21.0 1026.9 1.4
29/07:30am ESE 18 22 - - - - - - - 20.9 1026.7 1.4
29/07:00am SE 18 23 - - - - - - - 20.6 1026.4 1.4
29/06:30am ESE 17 21 - - - - - - - 20.2 1026.2 1.4
29/06:00am SE 19 24 - - - - - - - 20.1 1026.1 1.4
29/05:30am ESE 19 24 - - - - - - - 19.9 1025.7 1.4
29/05:00am ESE 19 23 - - - - - - - 20.1 1025.4 1.4
29/04:30am ESE 20 25 - - - - - - - 20.0 1025.2 1.4
29/04:00am ESE 22 26 - - - - - - - 19.3 1025.2 1.4
29/03:40am SE 21 31 - - - - - - - 18.7 1025.6 1.0
29/03:30am SE 21 26 - - - - - - - 20.2 1025.2 0.4
29/03:00am SE 22 26 - - - - - - - 19.8 1025.2 0.4
29/02:30am ESE 19 27 - - - - - - - 20.6 1025.1 0.4
29/02:25am ESE 17 27 - - - - - - - 20.5 1025.1 0.4
29/02:00am ESE 18 23 - - - - - - - 20.6 1025.2 0.4
29/01:30am ESE 18 23 - - - - - - - 20.8 1025.4 0.4
29/01:00am ESE 19 25 - - - - - - - 20.7 1025.4 0.4
29/12:30am ESE 21 28 - - - - - - - 20.4 1025.4 0.4
29/12:00am ESE 20 25 - - - - - - Recent precip. 20.2 1025.4 0.4
 
Date/Time
EST
Wind Sea
Height
m
Swell Vis
km
Cloud Weather Temp
°C
Press
MSL
hPa
Rain since
9am
mm
Dir  Spd
kts
Gust
kts
Height
m
Period
s
Dir
28/11:30pm SE 24 30 - - - - - - - 19.2 1025.6 0.2
28/11:15pm SE 19 30 - - - - - - - 20.6 1025.5 0.2
28/11:00pm ESE 14 19 - - - - - - - 20.7 1026.0 0.2
28/10:30pm ESE 14 19 - - - - - - - 20.9 1026.1 0.2
28/10:00pm ESE 14 19 - - - - - - - 20.9 1026.2 0.2
28/09:30pm ESE 16 20 - - - - - - - 20.7 1026.2 0.2
28/09:00pm ESE 17 20 - - - - - - - 20.8 1026.1 0.2
28/08:30pm ESE 18 23 - - - - - - - 20.7 1026.1 0.2
28/08:00pm ESE 16 22 - - - - - - - 20.7 1025.9 0.2
28/07:30pm SE 19 24 - - - - - - - 21.1 1025.8 0.2
28/07:00pm ESE 16 20 - - - - - - - 20.9 1025.6 0.2
28/06:30pm ESE 16 20 - - - - - - - 20.8 1025.3 0.2
28/06:00pm ESE 17 21 - - - - - - - 20.5 1025.0 0.2
28/05:30pm ESE 17 20 - - - - - - - 20.3 1024.8 0.2
28/05:00pm ESE 16 21 - - - - - - - 20.5 1024.6 0.2
28/04:30pm SE 15 19 - - - - - - - 20.7 1024.4 0.2
28/04:00pm S 11 16 - - - - - - - 20.3 1024.2 0.2
28/03:30pm SSE 10 15 - - - - - - - 20.4 1024.2 0.2
28/03:00pm S 12 15 - - - - - - - 20.4 1024.2 0.2
28/02:30pm S 14 19 - - - - - - - 20.5 1024.1 0.2
28/02:00pm S 13 17 - - - - - - - 20.9 1023.9 0.2
28/01:30pm S 12 17 - - - - - - - 21.0 1024.2 0.2
28/01:00pm SSW 11 16 - - - - - - - 20.5 1024.3 0.2
28/12:30pm SSW 12 17 - - - - - - - 20.7 1024.7 0.2
28/12:00pm SSW 10 15 - - - - - - - 20.4 1025.0 0.2
28/11:30am SSW 9 12 - - - - - - - 21.2 1025.3 0.2
28/11:00am SSW 9 13 - - - - - - - 20.3 1025.7 0.2
28/10:30am SW 11 16 - - - - - - - 19.8 1025.9 0.0
28/10:00am SW 11 14 - - - - - - - 18.3 1026.0 0.0
28/09:30am SW 9 12 - - - - - - - 17.8 1026.1 0.0
28/09:00am SSW 12 15 - - - - - - Recent precip. 17.3 1025.8 11.4
28/08:30am S 18 25 - - - - - - - 17.4 1025.6 11.4
28/08:12am SSW 13 25 - - - - - - - 18.2 1025.2 11.0
28/08:00am SSW 12 15 - - - - - - - 17.7 1025.1 11.0
28/07:30am SW 12 16 - - - - - - - 18.0 1024.7 10.4
28/07:00am S 9 12 - - - - - - - 18.8 1024.6 10.4
28/06:30am SW 10 11 - - - - - - - 16.6 1024.4 10.4
28/06:00am SSW 14 18 - - - - - - Recent precip. 16.3 1024.2 9.8
28/05:30am S 12 16 - - - - - - - 18.0 1023.9 9.0
28/05:00am SW 11 14 - - - - - - - 17.6 1023.6 8.4
28/04:30am SW 7 10 - - - - - - - 17.8 1023.4 8.4
28/04:00am SSW 6 9 - - - - - - - 17.7 1023.3 8.4
28/03:30am SW 8 10 - - - - - - - 17.4 1023.3 8.4
28/03:00am WSW 9 11 - - - - - - Recent precip. 17.5 1023.3 8.4
28/02:30am WSW 10 12 - - - - - - - 18.0 1023.3 8.2
28/02:00am W 11 13 - - - - - - - 17.5 1023.3 8.2
28/01:30am W 8 11 - - - - - - - 17.6 1023.5 8.2
28/01:00am NE 4 5 - - - - - - - 19.0 1023.8 8.2
28/12:30am NE 3 4 - - - - - - - 17.7 1023.8 8.2
28/12:00am S 8 15 - - - - - - Rain 18.6 1023.9 6.8
 
Date/Time
EST
Wind Sea
Height
m
Swell Vis
km
Cloud Weather Temp
°C
Press
MSL
hPa
Rain since
9am
mm
Dir  Spd
kts
Gust
kts
Height
m
Period
s
Dir
27/11:30pm SE 8 11 - - - - - - - 20.2 1023.8 6.2
27/11:00pm ESE 10 14 - - - - - - - 20.3 1023.7 6.2
27/10:30pm ESE 10 13 - - - - - - - 19.9 1023.8 6.2
27/10:00pm ESE 11 15 - - - - - - - 19.9 1023.7 6.2
27/09:30pm ESE 11 15 - - - - - - - 19.9 1023.7 6.2
27/09:00pm SE 11 16 - - - - - - - 19.7 1023.7 6.2
27/08:30pm SE 12 15 - - - - - - - 19.9 1023.7 6.2
27/08:00pm ESE 12 17 - - - - - - - 19.9 1023.5 6.2
27/07:30pm ESE 13 15 - - - - - - - 19.9 1023.4 6.2
27/07:00pm SE 12 16 - - - - - - - 19.6 1023.1 6.2
27/06:30pm ESE 13 16 - - - - - - - 19.9 1022.9 6.2
27/06:00pm ESE 12 17 - - - - - - - 19.8 1022.6 6.2
27/05:30pm SE 12 16 - - - - - - - 19.7 1022.5 6.2
27/05:00pm ESE 13 16 - - - - - - - 19.9 1022.4 6.2
27/04:30pm SE 12 15 - - - - - - - 20.3 1022.2 6.2
27/04:00pm SE 10 15 - - - - - - - 20.6 1022.1 6.2
27/03:30pm SE 10 12 - - - - - - - 20.6 1022.2 6.2
27/03:00pm SE 10 12 - - - - - - - 20.9 1022.2 6.2

Other formats

Comma delimited format used in spreadsheet applications
http://www.bom.gov.au/fwo/IDQ60701/IDQ60701.94594.axf

JavaScript Object Notation format (JSON) in row-major order
http://www.bom.gov.au/fwo/IDQ60701/IDQ60701.94594.json

Data quality

Most of these data are generated automatically and are frequently updated. Quality checks on data are not normally performed. It is possible for incorrect values to appear. Refer to information at About Latest Weather Observations and please check the disclaimer before using these data.